createdAt,value
2022-10-23T00:01:18.491Z,20.75
2022-10-23T00:03:46.606Z,21.05
2022-10-23T00:06:16.064Z,25.23
2022-10-23T00:08:43.397Z,22.42
2022-10-23T00:11:12.680Z,21.38
2022-10-23T00:13:39.699Z,21.63
2022-10-23T00:16:07.435Z,18.63
2022-10-23T00:18:34.957Z,21.70
2022-10-23T00:21:02.833Z,21.63
2022-10-23T00:23:29.693Z,21.92
2022-10-23T00:25:56.485Z,21.73
2022-10-23T00:28:23.408Z,33.75
2022-10-23T00:30:50.272Z,37.63
2022-10-23T00:33:17.070Z,40.38
2022-10-23T00:35:44.233Z,30.95
2022-10-23T00:38:11.736Z,27.10
2022-10-23T00:40:39.621Z,23.70
2022-10-23T00:43:07.570Z,22.38
2022-10-23T00:45:34.517Z,24.80
2022-10-23T00:48:02.729Z,24.48
2022-10-23T00:50:32.645Z,19.90
2022-10-23T00:53:03.237Z,24.05
2022-10-23T00:55:32.473Z,25.13
2022-10-23T00:57:59.727Z,24.13
2022-10-23T01:00:41.433Z,24.25
2022-10-23T01:03:08.366Z,20.50
2022-10-23T01:05:53.486Z,23.30
2022-10-23T01:08:40.003Z,22.30
2022-10-23T01:11:13.280Z,24.75
2022-10-23T01:14:10.292Z,24.15
2022-10-23T01:16:45.157Z,24.35
2022-10-23T01:19:17.132Z,26.42
2022-10-23T01:22:00.438Z,28.77
2022-10-23T01:24:56.048Z,26.50
2022-10-23T01:27:31.048Z,27.88
2022-10-23T01:30:06.692Z,26.33
2022-10-23T01:32:44.496Z,26.15
2022-10-23T01:35:38.018Z,24.40
2022-10-23T01:38:23.527Z,25.35
2022-10-23T01:40:53.127Z,29.67
2022-10-23T01:43:25.866Z,28.63
2022-10-23T01:46:06.674Z,23.33
2022-10-23T01:48:35.816Z,22.75
2022-10-23T01:51:07.806Z,25.60
2022-10-23T01:53:41.268Z,30.67
2022-10-23T01:56:12.677Z,28.70
2022-10-23T01:58:44.129Z,27.73
2022-10-23T02:01:12.542Z,30.80
2022-10-23T02:03:41.326Z,28.75
2022-10-23T02:06:08.392Z,30.23
2022-10-23T02:08:35.600Z,32.70
2022-10-23T02:11:12.857Z,29.95
2022-10-23T02:13:45.759Z,29.98
2022-10-23T02:16:27.358Z,30.52
2022-10-23T02:19:11.213Z,28.15
2022-10-23T02:21:48.788Z,28.45
2022-10-23T02:24:20.486Z,27.40
2022-10-23T02:29:24.561Z,29.23
2022-10-23T02:31:51.495Z,30.67
2022-10-23T02:34:19.225Z,28.80
2022-10-23T02:36:46.298Z,28.75
2022-10-23T02:39:13.222Z,31.70
2022-10-23T02:41:51.265Z,31.83
2022-10-23T02:44:38.273Z,32.33
2022-10-23T02:47:35.147Z,32.50
2022-10-23T02:50:38.440Z,32.95
2022-10-23T02:53:35.498Z,36.75
2022-10-23T02:56:25.509Z,30.67
2022-10-23T02:59:16.829Z,33.38
2022-10-23T03:01:54.351Z,38.03
2022-10-23T03:04:24.527Z,33.38
2022-10-23T03:06:52.097Z,34.17
2022-10-23T03:09:19.498Z,34.15
2022-10-23T03:11:46.530Z,40.03
2022-10-23T03:14:14.027Z,32.45
2022-10-23T03:16:40.830Z,31.75
2022-10-23T03:19:07.709Z,33.45
2022-10-23T03:21:34.647Z,35.08
2022-10-23T03:24:01.494Z,34.22
2022-10-23T03:26:28.334Z,31.08
2022-10-23T03:28:55.209Z,34.33
2022-10-23T03:31:22.079Z,34.28
2022-10-23T03:33:48.933Z,35.65
2022-10-23T03:36:15.769Z,37.83
2022-10-23T03:38:42.558Z,36.30
2022-10-23T03:41:09.368Z,36.22
2022-10-23T03:43:36.185Z,34.20
2022-10-23T03:46:03.197Z,28.75
2022-10-23T03:48:30.060Z,31.63
2022-10-23T03:50:56.843Z,35.90
2022-10-23T03:53:23.641Z,33.83
2022-10-23T03:55:50.426Z,29.33
2022-10-23T03:58:17.451Z,32.95
2022-10-23T04:00:44.298Z,32.38
2022-10-23T04:03:11.133Z,33.03
2022-10-23T04:05:39.139Z,29.65
2022-10-23T04:08:05.988Z,31.48
2022-10-23T04:10:32.823Z,31.85
2022-10-23T04:12:59.702Z,27.48
2022-10-23T04:15:26.534Z,29.98
2022-10-23T04:17:53.385Z,31.15
2022-10-23T04:20:20.381Z,29.80
2022-10-23T04:22:47.205Z,29.30
2022-10-23T04:25:14.169Z,28.55
2022-10-23T04:27:41.282Z,27.63
2022-10-23T04:30:09.386Z,32.10
2022-10-23T04:32:36.217Z,29.08
2022-10-23T04:35:03.265Z,25.45
2022-10-23T04:37:30.119Z,34.83
2022-10-23T04:39:56.955Z,27.17
2022-10-23T04:42:24.077Z,31.40
2022-10-23T04:44:50.919Z,27.85
2022-10-23T04:47:17.792Z,27.13
2022-10-23T04:49:44.613Z,28.50
2022-10-23T04:52:11.463Z,27.75
2022-10-23T04:54:39.140Z,26.88
2022-10-23T04:57:05.969Z,27.27
2022-10-23T04:59:32.939Z,30.13
2022-10-23T05:01:59.793Z,30.40
2022-10-23T05:04:26.720Z,30.27
2022-10-23T05:06:53.631Z,29.65
2022-10-23T05:09:22.229Z,29.48
2022-10-23T05:11:49.335Z,33.28
2022-10-23T05:14:20.555Z,37.58
2022-10-23T05:17:08.444Z,38.88
2022-10-23T05:19:40.868Z,34.00
2022-10-23T05:22:09.105Z,34.95
2022-10-23T05:24:36.004Z,34.58
2022-10-23T05:27:02.830Z,37.33
2022-10-23T05:29:29.944Z,40.20
2022-10-23T05:32:02.849Z,37.83
2022-10-23T05:34:31.919Z,40.65
2022-10-23T05:36:58.891Z,41.00
2022-10-23T05:39:25.820Z,38.22
2022-10-23T05:41:52.792Z,40.03
2022-10-23T05:44:19.592Z,40.15
2022-10-23T05:46:46.562Z,39.63
2022-10-23T05:49:13.355Z,37.30
2022-10-23T05:51:41.234Z,38.45
2022-10-23T05:54:08.684Z,36.63
2022-10-23T05:56:36.895Z,42.83
2022-10-23T05:59:04.499Z,38.60
2022-10-23T06:01:31.487Z,38.25
2022-10-23T06:04:00.264Z,36.55
2022-10-23T06:06:27.287Z,32.00
2022-10-23T06:08:54.706Z,37.92
2022-10-23T06:11:21.581Z,33.15
2022-10-23T06:13:48.628Z,39.17
2022-10-23T06:16:21.087Z,37.13
2022-10-23T06:18:48.464Z,31.63
2022-10-23T06:21:16.414Z,34.05
2022-10-23T06:23:45.003Z,37.20
2022-10-23T06:26:14.420Z,32.05
2022-10-23T06:28:41.615Z,27.98
2022-10-23T06:31:11.585Z,29.75
2022-10-23T06:33:38.728Z,28.42
2022-10-23T06:36:08.287Z,30.27
2022-10-23T06:38:37.293Z,30.08
2022-10-23T06:41:05.053Z,30.10
2022-10-23T06:43:31.834Z,29.55
2022-10-23T06:46:02.779Z,34.97
2022-10-23T06:48:29.906Z,35.97
2022-10-23T06:50:56.756Z,37.33
2022-10-23T06:53:24.957Z,35.10
2022-10-23T06:55:55.319Z,38.22
2022-10-23T06:58:22.574Z,31.33
2022-10-23T07:00:49.417Z,35.92
2022-10-23T07:03:16.285Z,38.22
2022-10-23T07:05:44.913Z,30.67
2022-10-23T07:08:11.723Z,38.00
2022-10-23T07:10:38.707Z,33.03
2022-10-23T07:13:05.546Z,30.77
2022-10-23T07:15:32.414Z,32.80
2022-10-23T07:17:59.290Z,32.60
2022-10-23T07:20:26.484Z,33.65
2022-10-23T07:22:54.881Z,39.47
2022-10-23T07:25:23.177Z,35.88
2022-10-23T07:27:50.306Z,35.88
2022-10-23T07:30:17.277Z,32.47
2022-10-23T07:32:44.868Z,38.00
2022-10-23T07:37:40.230Z,35.45
2022-10-23T07:40:08.328Z,30.35
2022-10-23T07:42:35.652Z,29.25
2022-10-23T07:45:04.459Z,27.70
2022-10-23T07:47:32.635Z,27.23
2022-10-23T07:49:59.713Z,25.52
2022-10-23T07:52:28.781Z,24.63
2022-10-23T07:54:57.533Z,20.30
2022-10-23T07:57:24.357Z,20.75
2022-10-23T07:59:51.181Z,15.75
2022-10-23T08:02:18.210Z,16.92
2022-10-23T08:04:45.073Z,13.60
2022-10-23T08:07:11.930Z,13.38
2022-10-23T08:09:38.852Z,9.70
2022-10-23T08:12:06.058Z,8.13
2022-10-23T08:14:32.886Z,9.93
2022-10-23T08:16:59.756Z,8.27
2022-10-23T08:19:26.621Z,6.60
2022-10-23T08:21:57.343Z,8.73
2022-10-23T08:24:24.262Z,10.20
2022-10-23T08:26:51.196Z,7.35
2022-10-23T08:29:18.151Z,6.60
2022-10-23T08:31:45.003Z,6.80
2022-10-23T08:34:11.911Z,6.10
2022-10-23T08:36:39.420Z,4.43
2022-10-23T08:39:07.328Z,4.38
2022-10-23T08:41:44.179Z,5.50
2022-10-23T08:44:23.415Z,12.88
2022-10-23T08:46:59.325Z,4.47
2022-10-23T08:49:43.392Z,6.53
2022-10-23T08:52:28.079Z,6.00
2022-10-23T08:55:16.534Z,5.53
2022-10-23T08:58:07.492Z,3.63
2022-10-23T09:00:34.986Z,3.87
2022-10-23T09:03:04.547Z,6.07
2022-10-23T09:06:21.512Z,3.60
2022-10-23T09:09:03.358Z,4.30
2022-10-23T09:11:48.358Z,4.95
2022-10-23T09:14:42.504Z,4.22
2022-10-23T09:17:21.281Z,3.67
2022-10-23T09:19:54.327Z,4.45
2022-10-23T09:22:21.152Z,6.38
2022-10-23T09:24:52.981Z,6.72
2022-10-23T09:27:21.154Z,3.85
2022-10-23T09:29:55.544Z,5.05
2022-10-23T09:32:48.403Z,6.53
2022-10-23T09:35:26.552Z,5.22
2022-10-23T09:37:53.788Z,4.55
2022-10-23T09:40:42.132Z,24.75
2022-10-23T09:43:17.732Z,7.53
2022-10-23T09:45:55.639Z,6.13
2022-10-23T09:48:22.498Z,4.35
2022-10-23T09:50:54.599Z,4.45
2022-10-23T09:53:48.881Z,7.30
2022-10-23T09:56:30.479Z,3.90
2022-10-23T09:59:01.435Z,5.15
2022-10-23T10:01:45.475Z,3.97
2022-10-23T10:04:12.347Z,7.07
2022-10-23T10:06:39.248Z,4.95
2022-10-23T10:09:11.609Z,5.15
2022-10-23T10:11:47.708Z,5.90
2022-10-23T10:14:39.181Z,7.57
2022-10-23T10:17:16.181Z,6.07
2022-10-23T10:20:06.904Z,4.22
2022-10-23T10:22:56.465Z,5.77
2022-10-23T10:25:34.281Z,4.63
2022-10-23T10:28:33.528Z,4.45
2022-10-23T10:31:10.507Z,4.10
2022-10-23T10:33:52.639Z,4.80
2022-10-23T10:36:22.590Z,4.75
2022-10-23T10:38:53.585Z,6.15
2022-10-23T10:41:48.758Z,8.52
2022-10-23T10:44:53.430Z,6.55
2022-10-23T10:47:33.380Z,7.65
2022-10-23T10:50:28.693Z,6.43
2022-10-23T10:53:14.080Z,5.63
2022-10-23T10:55:46.918Z,5.75
2022-10-23T10:58:25.936Z,5.45
2022-10-23T11:01:03.299Z,7.55
2022-10-23T11:04:12.747Z,6.78
2022-10-23T11:06:41.626Z,5.53
2022-10-23T11:09:20.898Z,5.03
2022-10-23T11:11:49.352Z,8.10
2022-10-23T11:14:22.716Z,7.57
2022-10-23T11:17:09.745Z,6.53
2022-10-23T11:19:40.468Z,5.50
2022-10-23T11:22:30.459Z,5.70
2022-10-23T11:25:15.701Z,5.53
2022-10-23T11:27:54.596Z,5.47
2022-10-23T11:30:45.354Z,5.30
2022-10-23T11:33:47.411Z,7.10
2022-10-23T11:38:53.090Z,6.00
2022-10-23T11:41:34.128Z,6.30
2022-10-23T11:44:04.141Z,6.80
2022-10-23T11:46:35.795Z,8.07
2022-10-23T11:51:38.252Z,5.50
2022-10-23T11:54:24.371Z,23.70
2022-10-23T11:57:10.615Z,7.15
2022-10-23T11:59:49.381Z,6.07
2022-10-23T12:02:32.199Z,5.90
2022-10-23T12:05:04.673Z,5.68
2022-10-23T12:07:35.920Z,3.67
2022-10-23T12:10:05.260Z,5.65
2022-10-23T12:12:40.683Z,4.65
2022-10-23T12:15:15.900Z,3.40
2022-10-23T12:17:43.998Z,5.30
2022-10-23T12:20:11.294Z,4.30
2022-10-23T12:23:02.992Z,3.70
2022-10-23T12:25:58.363Z,2.97
2022-10-23T12:29:05.501Z,4.13
2022-10-23T12:31:50.822Z,3.60
2022-10-23T12:34:34.556Z,3.88
2022-10-23T12:37:22.823Z,3.97
2022-10-23T12:39:55.243Z,3.92
2022-10-23T12:42:28.457Z,3.00
2022-10-23T12:45:41.876Z,7.80
2022-10-23T12:48:20.507Z,3.00
2022-10-23T12:50:55.891Z,2.83
2022-10-23T12:53:24.202Z,8.93
2022-10-23T12:58:32.104Z,3.78
2022-10-23T13:01:05.576Z,3.55
2022-10-23T13:03:34.161Z,4.50
2022-10-23T13:06:03.140Z,6.57
2022-10-23T13:08:39.112Z,5.32
2022-10-23T13:11:06.817Z,5.30
2022-10-23T13:13:33.689Z,6.22
2022-10-23T13:16:00.483Z,4.28
2022-10-23T13:18:27.316Z,3.85
2022-10-23T13:20:54.116Z,4.78
2022-10-23T13:23:33.201Z,5.60
2022-10-23T13:26:23.416Z,7.10
2022-10-23T13:28:50.758Z,5.35
2022-10-23T13:31:17.492Z,6.68
2022-10-23T13:33:47.106Z,4.65
2022-10-23T13:36:13.906Z,5.03
2022-10-23T13:39:02.247Z,6.88
2022-10-23T13:41:36.860Z,5.47
2022-10-23T13:44:03.845Z,5.75
2022-10-23T13:46:30.741Z,7.72
2022-10-23T13:48:57.600Z,8.60
2022-10-23T13:51:27.686Z,5.57
2022-10-23T13:53:55.830Z,5.38
2022-10-23T13:56:24.246Z,7.50
2022-10-23T13:58:51.190Z,10.02
2022-10-23T14:01:22.497Z,8.10
2022-10-23T14:03:51.177Z,7.50
2022-10-23T14:06:18.113Z,8.90
2022-10-23T14:08:45.585Z,11.32
2022-10-23T14:13:47.980Z,7.43
2022-10-23T14:16:17.382Z,7.47
2022-10-23T14:18:44.717Z,5.70
2022-10-23T14:21:14.531Z,6.70
2022-10-23T14:23:41.362Z,6.30
2022-10-23T14:26:11.156Z,8.38
2022-10-23T14:28:38.236Z,17.13
2022-10-23T14:31:16.795Z,13.02
2022-10-23T14:33:44.846Z,16.30
2022-10-23T14:36:13.007Z,8.68
2022-10-23T14:38:40.024Z,9.27
2022-10-23T14:41:11.738Z,8.68
2022-10-23T14:46:16.431Z,8.10
2022-10-23T14:48:46.125Z,7.90
2022-10-23T14:51:20.977Z,6.65
2022-10-23T14:53:48.599Z,9.07
2022-10-23T14:56:16.024Z,5.43
2022-10-23T14:58:43.361Z,8.43
2022-10-23T15:01:10.829Z,6.40
2022-10-23T15:03:37.798Z,7.22
2022-10-23T15:06:07.055Z,8.60
2022-10-23T15:08:34.575Z,10.15
2022-10-23T15:11:02.833Z,10.52
2022-10-23T15:13:29.845Z,11.10
2022-10-23T15:16:05.729Z,9.48
2022-10-23T15:18:32.618Z,10.50
2022-10-23T15:21:00.213Z,9.93
2022-10-23T15:23:27.095Z,8.75
2022-10-23T15:26:02.092Z,9.00
2022-10-23T15:28:30.036Z,8.02
2022-10-23T15:30:57.013Z,7.50
2022-10-23T15:33:24.049Z,11.18
2022-10-23T15:35:52.188Z,8.00
2022-10-23T15:38:19.381Z,9.70
2022-10-23T15:40:47.288Z,20.13
2022-10-23T15:43:15.271Z,19.83
2022-10-23T15:45:43.070Z,15.27
2022-10-23T15:48:09.942Z,11.32
2022-10-23T15:50:37.219Z,15.20
2022-10-23T15:53:04.682Z,16.40
2022-10-23T15:55:31.614Z,12.95
2022-10-23T15:58:04.081Z,10.90
2022-10-23T16:00:31.126Z,8.77
2022-10-23T16:02:58.353Z,10.25
2022-10-23T16:05:25.166Z,8.43
2022-10-23T16:07:51.987Z,10.25
2022-10-23T16:10:19.092Z,9.48
2022-10-23T16:12:46.183Z,8.13
2022-10-23T16:15:13.115Z,9.15
2022-10-23T16:17:40.122Z,13.60
2022-10-23T16:20:07.712Z,11.57
2022-10-23T16:22:34.566Z,8.40
2022-10-23T16:25:01.554Z,7.57
2022-10-23T16:27:28.475Z,7.35
2022-10-23T16:29:55.311Z,7.00
2022-10-23T16:32:22.210Z,6.85
2022-10-23T16:34:49.026Z,6.88
2022-10-23T16:37:15.923Z,11.10
2022-10-23T16:39:42.738Z,9.63
2022-10-23T16:42:09.594Z,7.03
2022-10-23T16:44:36.471Z,7.53
2022-10-23T16:47:03.275Z,8.40
2022-10-23T16:49:32.201Z,6.82
2022-10-23T16:51:59.230Z,7.07
2022-10-23T16:54:26.098Z,7.10
2022-10-23T16:56:53.018Z,8.77
2022-10-23T16:59:19.831Z,8.15
2022-10-23T17:01:46.811Z,6.55
2022-10-23T17:04:13.734Z,8.55
2022-10-23T17:06:41.213Z,8.35
2022-10-23T17:09:08.294Z,7.22
2022-10-23T17:11:38.204Z,6.55
2022-10-23T17:14:17.628Z,6.30
2022-10-23T17:16:48.093Z,7.43
2022-10-23T17:19:33.126Z,8.60
2022-10-23T17:22:04.161Z,8.82
2022-10-23T17:24:30.956Z,9.30
2022-10-23T17:26:57.859Z,11.40
2022-10-23T17:29:24.906Z,11.95
2022-10-23T17:31:52.135Z,18.35
2022-10-23T17:34:22.114Z,17.83
2022-10-23T17:36:52.202Z,12.85
2022-10-23T17:39:22.406Z,14.10
2022-10-23T17:41:49.258Z,11.50
2022-10-23T17:44:16.246Z,15.85
2022-10-23T17:46:43.476Z,15.35
2022-10-23T17:49:11.251Z,16.17
2022-10-23T17:51:38.212Z,12.77
2022-10-23T17:54:11.425Z,26.90
2022-10-23T17:56:38.850Z,14.02
2022-10-23T17:59:09.565Z,14.43
2022-10-23T18:01:36.916Z,12.80
2022-10-23T18:04:06.382Z,14.73
2022-10-23T18:06:36.602Z,14.27
2022-10-23T18:09:05.237Z,12.60
2022-10-23T18:11:37.739Z,13.02
2022-10-23T18:14:06.473Z,12.32
2022-10-23T18:16:34.884Z,12.55
2022-10-23T18:19:02.656Z,12.48
2022-10-23T18:21:29.697Z,23.00
2022-10-23T18:23:59.171Z,14.32
2022-10-23T18:26:28.775Z,13.95
2022-10-23T18:28:58.245Z,12.18
2022-10-23T18:31:27.760Z,14.32
2022-10-23T18:34:07.668Z,11.65
2022-10-23T18:36:38.413Z,11.95
2022-10-23T18:39:07.435Z,11.82
2022-10-23T18:41:37.392Z,10.25
2022-10-23T18:44:04.807Z,12.75
2022-10-23T18:46:32.228Z,10.35
2022-10-23T18:48:59.657Z,10.52
2022-10-23T18:51:29.324Z,13.48
2022-10-23T18:53:57.256Z,11.77
2022-10-23T18:56:26.754Z,13.88
2022-10-23T18:59:01.999Z,12.90
2022-10-23T19:01:30.072Z,16.25
2022-10-23T19:03:58.574Z,16.02
2022-10-23T19:06:25.813Z,12.50
2022-10-23T19:08:52.986Z,12.98
2022-10-23T19:11:21.814Z,10.55
2022-10-23T19:13:48.701Z,11.55
2022-10-23T19:16:41.628Z,12.43
2022-10-23T19:19:21.561Z,11.98
2022-10-23T19:21:49.885Z,12.70
2022-10-23T19:24:24.152Z,14.38
2022-10-23T19:26:51.169Z,11.57
2022-10-23T19:29:20.632Z,9.68
2022-10-23T19:31:49.351Z,11.02
2022-10-23T19:34:20.045Z,9.75
2022-10-23T19:36:48.167Z,8.82
2022-10-23T19:39:15.386Z,12.07
2022-10-23T19:41:42.235Z,8.77
2022-10-23T19:44:09.261Z,21.15
2022-10-23T19:46:36.997Z,12.23
2022-10-23T19:49:05.196Z,11.48
2022-10-23T19:51:32.695Z,8.65
2022-10-23T19:53:59.745Z,11.20
2022-10-23T19:56:26.966Z,8.52
2022-10-23T19:58:53.835Z,9.68
2022-10-23T20:01:24.131Z,9.55
2022-10-23T20:03:51.751Z,9.32
2022-10-23T20:06:22.251Z,9.82
2022-10-23T20:08:49.105Z,10.88
2022-10-23T20:11:28.514Z,11.27
2022-10-23T20:13:56.203Z,10.05
2022-10-23T20:16:31.382Z,12.07
2022-10-23T20:19:00.829Z,10.23
2022-10-23T20:21:27.681Z,10.52
2022-10-23T20:23:57.097Z,11.95
2022-10-23T20:26:24.228Z,14.55
2022-10-23T20:28:56.021Z,11.18
2022-10-23T20:31:26.018Z,10.57
2022-10-23T20:33:53.055Z,13.98
2022-10-23T20:36:30.245Z,12.60
2022-10-23T20:38:58.673Z,10.05
2022-10-23T20:41:27.188Z,15.52
2022-10-23T20:43:55.881Z,10.32
2022-10-23T20:46:25.431Z,15.35
2022-10-23T20:48:52.915Z,11.50
2022-10-23T20:51:21.508Z,10.23
2022-10-23T20:53:48.802Z,7.93
2022-10-23T20:56:19.279Z,9.70
2022-10-23T20:58:46.349Z,8.15
2022-10-23T21:01:19.175Z,8.10
2022-10-23T21:03:51.153Z,7.72
2022-10-23T21:06:19.237Z,11.77
2022-10-23T21:08:46.119Z,9.23
2022-10-23T21:11:15.096Z,11.43
2022-10-23T21:13:43.779Z,8.45
2022-10-23T21:16:13.806Z,10.07
2022-10-23T21:18:45.927Z,8.10
2022-10-23T21:21:14.959Z,8.90
2022-10-23T21:23:41.835Z,8.13
2022-10-23T21:26:08.768Z,7.65
2022-10-23T21:28:35.922Z,7.20
2022-10-23T21:31:07.991Z,7.40
2022-10-23T21:33:36.448Z,5.53
2022-10-23T21:36:18.988Z,6.07
2022-10-23T21:38:47.848Z,7.57
2022-10-23T21:41:23.316Z,6.47
2022-10-23T21:43:54.467Z,5.50
2022-10-23T21:46:22.460Z,7.32
2022-10-23T21:48:49.630Z,7.50
2022-10-23T21:51:37.292Z,5.30
2022-10-23T21:54:06.431Z,6.57
2022-10-23T21:56:49.447Z,6.90
2022-10-23T21:59:19.779Z,10.40
2022-10-23T22:01:48.120Z,5.32
2022-10-23T22:04:17.429Z,5.75
2022-10-23T22:06:46.300Z,6.50
2022-10-23T22:09:16.670Z,7.63
2022-10-23T22:11:43.668Z,10.18
2022-10-23T22:14:10.821Z,10.02
2022-10-23T22:16:37.741Z,10.63
2022-10-23T22:19:04.958Z,4.75
2022-10-23T22:21:32.072Z,11.05
2022-10-23T22:24:00.092Z,6.22
2022-10-23T22:26:30.091Z,7.82
2022-10-23T22:29:00.410Z,8.40
2022-10-23T22:31:29.833Z,8.55
2022-10-23T22:33:57.238Z,5.85
2022-10-23T22:36:25.105Z,6.80
2022-10-23T22:38:52.200Z,8.20
2022-10-23T22:41:19.939Z,6.53
2022-10-23T22:43:46.906Z,8.07
2022-10-23T22:46:17.160Z,8.20
2022-10-23T22:48:44.814Z,8.18
2022-10-23T22:51:14.635Z,8.48
2022-10-23T22:53:42.243Z,7.68
2022-10-23T22:56:11.104Z,14.73
2022-10-23T22:58:38.015Z,9.95
2022-10-23T23:01:22.883Z,13.93
2022-10-23T23:03:50.392Z,17.02
2022-10-23T23:06:18.016Z,15.55
2022-10-23T23:08:45.295Z,16.27
2022-10-23T23:11:14.179Z,9.63
2022-10-23T23:13:41.584Z,9.10
2022-10-23T23:16:14.070Z,9.38
2022-10-23T23:18:40.861Z,9.85
2022-10-23T23:21:07.648Z,11.38
2022-10-23T23:23:34.564Z,12.80
2022-10-23T23:26:05.870Z,13.13
2022-10-23T23:28:32.729Z,14.27
2022-10-23T23:31:08.698Z,10.20
2022-10-23T23:33:35.680Z,9.90
2022-10-23T23:36:08.334Z,13.45
2022-10-23T23:38:36.310Z,12.80
2022-10-23T23:41:03.555Z,10.05
2022-10-23T23:43:30.879Z,11.07
2022-10-23T23:45:58.516Z,11.40
2022-10-23T23:48:26.165Z,14.30
2022-10-23T23:50:52.952Z,13.07
2022-10-23T23:53:19.808Z,13.32
2022-10-23T23:55:46.677Z,11.63
2022-10-23T23:58:13.793Z,11.43
